createdAt,value
2022-09-28T00:01:23.567Z,62.58
2022-09-28T00:03:52.960Z,62.67
2022-09-28T00:06:22.712Z,63.50
2022-09-28T00:08:51.025Z,55.22
2022-09-28T00:11:20.939Z,64.20
2022-09-28T00:13:51.492Z,65.18
2022-09-28T00:16:21.034Z,59.55
2022-09-28T00:18:51.436Z,60.58
2022-09-28T00:21:22.331Z,55.33
2022-09-28T00:24:11.676Z,56.15
2022-09-28T00:26:41.261Z,55.10
2022-09-28T00:29:32.536Z,54.15
2022-09-28T00:32:05.582Z,48.40
2022-09-28T00:34:36.115Z,51.20
2022-09-28T00:37:05.126Z,46.30
2022-09-28T00:39:35.744Z,52.15
2022-09-28T00:42:03.925Z,45.42
2022-09-28T00:44:42.135Z,52.65
2022-09-28T00:47:17.792Z,47.08
2022-09-28T00:49:56.469Z,51.35
2022-09-28T00:52:32.856Z,46.13
2022-09-28T00:55:01.484Z,44.13
2022-09-28T00:57:29.579Z,48.70
2022-09-28T00:59:57.694Z,50.30
2022-09-28T01:02:25.964Z,45.85
2022-09-28T01:04:53.957Z,54.95
2022-09-28T01:07:22.297Z,45.30
2022-09-28T01:09:50.444Z,51.90
2022-09-28T01:12:18.274Z,51.92
2022-09-28T01:14:46.405Z,49.83
2022-09-28T01:17:16.570Z,48.83
2022-09-28T01:20:20.085Z,50.03
2022-09-28T01:23:14.520Z,54.40
2022-09-28T01:25:55.369Z,60.42
2022-09-28T01:28:31.871Z,54.65
2022-09-28T01:31:13.373Z,51.63
2022-09-28T01:33:46.235Z,57.97
2022-09-28T01:36:23.294Z,54.40
2022-09-28T01:39:02.090Z,60.33
2022-09-28T01:41:30.330Z,59.95
2022-09-28T01:43:59.612Z,52.80
2022-09-28T01:46:37.447Z,55.38
2022-09-28T01:49:11.650Z,62.05
2022-09-28T01:51:41.556Z,58.45
2022-09-28T01:54:14.342Z,55.67
2022-09-28T01:56:57.892Z,51.15
2022-09-28T01:59:28.452Z,65.82
2022-09-28T02:02:00.933Z,60.20
2022-09-28T02:04:46.323Z,59.00
2022-09-28T02:07:20.893Z,56.70
2022-09-28T02:09:56.132Z,59.20
2022-09-28T02:12:45.401Z,53.92
2022-09-28T02:15:19.794Z,52.45
2022-09-28T02:17:48.831Z,51.88
2022-09-28T02:20:17.209Z,53.47
2022-09-28T02:22:50.155Z,52.28
2022-09-28T02:25:24.371Z,50.53
2022-09-28T02:28:05.823Z,43.50
2022-09-28T02:30:36.556Z,43.95
2022-09-28T02:33:21.923Z,67.72
2022-09-28T02:35:49.753Z,47.40
2022-09-28T02:38:19.357Z,44.70
2022-09-28T02:40:55.787Z,48.92
2022-09-28T02:46:14.323Z,44.22
2022-09-28T02:49:20.866Z,43.35
2022-09-28T02:52:08.334Z,49.00
2022-09-28T02:54:48.887Z,44.25
2022-09-28T02:57:51.990Z,43.60
2022-09-28T03:00:21.373Z,44.67
2022-09-28T03:03:12.296Z,43.90
2022-09-28T03:06:30.775Z,43.47
2022-09-28T03:09:06.304Z,50.22
2022-09-28T03:11:44.055Z,44.28
2022-09-28T03:14:11.857Z,47.72
2022-09-28T03:16:58.037Z,51.88
2022-09-28T03:19:36.911Z,48.10
2022-09-28T03:22:05.779Z,51.88
2022-09-28T03:24:34.787Z,51.63
2022-09-28T03:27:03.138Z,53.35
2022-09-28T03:29:33.228Z,47.72
2022-09-28T03:32:06.953Z,44.70
2022-09-28T03:34:35.813Z,50.47
2022-09-28T03:37:03.745Z,49.63
2022-09-28T03:39:32.039Z,51.53
2022-09-28T03:42:01.087Z,44.47
2022-09-28T03:44:30.260Z,57.15
2022-09-28T03:46:58.099Z,52.03
2022-09-28T03:49:26.470Z,45.85
2022-09-28T03:51:54.397Z,47.42
2022-09-28T03:54:24.255Z,49.67
2022-09-28T03:56:52.829Z,51.55
2022-09-28T03:59:20.843Z,47.05
2022-09-28T04:01:49.977Z,52.13
2022-09-28T04:04:18.985Z,48.17
2022-09-28T04:06:47.100Z,53.85
2022-09-28T04:09:15.270Z,55.92
2022-09-28T04:12:02.870Z,59.88
2022-09-28T04:14:32.093Z,58.88
2022-09-28T04:17:00.019Z,60.78
2022-09-28T04:19:31.821Z,69.85
2022-09-28T04:22:32.299Z,58.58
2022-09-28T04:25:00.181Z,62.70
2022-09-28T04:27:46.476Z,70.93
2022-09-28T04:30:14.651Z,62.80
2022-09-28T04:32:47.528Z,64.88
2022-09-28T04:35:15.894Z,74.32
2022-09-28T04:37:43.967Z,69.03
2022-09-28T04:40:16.036Z,63.70
2022-09-28T04:42:45.049Z,66.90
2022-09-28T04:45:26.214Z,54.30
2022-09-28T04:47:56.338Z,61.47
2022-09-28T04:50:31.803Z,56.45
2022-09-28T04:53:19.246Z,59.33
2022-09-28T04:56:01.530Z,60.55
2022-09-28T04:58:29.704Z,64.78
2022-09-28T05:01:00.020Z,64.00
2022-09-28T05:04:00.394Z,68.38
2022-09-28T05:06:38.115Z,61.58
2022-09-28T05:09:09.555Z,67.45
2022-09-28T05:11:37.567Z,73.68
2022-09-28T05:14:11.974Z,74.72
2022-09-28T05:16:44.094Z,71.05
2022-09-28T05:19:27.992Z,66.60
2022-09-28T05:22:04.779Z,65.05
2022-09-28T05:24:42.446Z,69.30
2022-09-28T05:27:10.781Z,61.58
2022-09-28T05:29:41.269Z,59.75
2022-09-28T05:32:29.038Z,66.43
2022-09-28T05:35:19.262Z,65.53
2022-09-28T05:37:48.631Z,65.82
2022-09-28T05:40:16.685Z,60.58
2022-09-28T05:42:44.751Z,59.22
2022-09-28T05:45:14.355Z,61.65
2022-09-28T05:47:46.301Z,57.08
2022-09-28T05:50:18.398Z,62.58
2022-09-28T05:52:47.519Z,61.05
2022-09-28T05:55:15.690Z,56.65
2022-09-28T05:57:44.942Z,61.78
2022-09-28T06:00:13.234Z,54.00
2022-09-28T06:02:43.564Z,46.00
2022-09-28T06:05:14.558Z,46.30
2022-09-28T06:07:42.918Z,41.03
2022-09-28T06:10:13.974Z,44.20
2022-09-28T06:12:57.692Z,41.38
2022-09-28T06:15:31.056Z,38.17
2022-09-28T06:18:11.870Z,46.05
2022-09-28T06:20:59.198Z,45.13
2022-09-28T06:23:36.371Z,42.42
2022-09-28T06:26:06.397Z,41.63
2022-09-28T06:28:34.637Z,34.90
2022-09-28T06:31:06.205Z,43.50
2022-09-28T06:33:43.277Z,35.47
2022-09-28T06:36:12.472Z,40.00
2022-09-28T06:39:13.289Z,39.33
2022-09-28T06:41:41.989Z,39.50
2022-09-28T06:44:16.141Z,29.00
2022-09-28T06:47:04.400Z,37.08
2022-09-28T06:49:59.561Z,38.38
2022-09-28T06:52:59.700Z,37.05
2022-09-28T06:56:07.431Z,32.50
2022-09-28T06:58:35.370Z,30.90
2022-09-28T07:01:04.199Z,32.17
2022-09-28T07:03:43.279Z,27.33
2022-09-28T07:06:48.513Z,24.27
2022-09-28T07:09:51.338Z,19.63
2022-09-28T07:12:53.571Z,18.92
2022-09-28T07:18:30.611Z,22.63
2022-09-28T07:20:59.657Z,22.00
2022-09-28T07:23:32.238Z,17.02
2022-09-28T07:26:13.289Z,19.38
2022-09-28T07:28:58.561Z,20.50
2022-09-28T07:31:39.739Z,19.50
2022-09-28T07:34:43.742Z,18.42
2022-09-28T07:37:38.745Z,19.58
2022-09-28T07:40:27.302Z,18.60
2022-09-28T07:42:56.440Z,18.50
2022-09-28T07:45:25.057Z,18.55
2022-09-28T07:47:58.081Z,21.80
2022-09-28T07:50:36.126Z,22.42
2022-09-28T07:53:26.308Z,25.05
2022-09-28T07:56:09.551Z,22.48
2022-09-28T07:58:52.394Z,19.55
2022-09-28T08:01:41.754Z,21.50
2022-09-28T08:04:13.892Z,19.95
2022-09-28T08:06:45.091Z,16.60
2022-09-28T08:09:14.594Z,17.25
2022-09-28T08:12:04.190Z,18.23
2022-09-28T08:14:43.471Z,15.50
2022-09-28T08:17:25.080Z,19.95
2022-09-28T08:20:16.586Z,18.48
2022-09-28T08:22:44.838Z,23.90
2022-09-28T08:25:17.384Z,16.25
2022-09-28T08:27:45.400Z,20.35
2022-09-28T08:30:13.854Z,19.70
2022-09-28T08:32:51.425Z,19.83
2022-09-28T08:35:49.071Z,22.30
2022-09-28T08:38:21.149Z,19.73
2022-09-28T08:41:57.052Z,18.25
2022-09-28T08:44:50.653Z,19.77
2022-09-28T08:47:57.139Z,22.88
2022-09-28T08:51:06.706Z,19.52
2022-09-28T09:30:06.615Z,24.33
2022-09-28T09:32:37.403Z,24.88
2022-09-28T09:35:31.674Z,25.77
2022-09-28T09:46:05.643Z,28.02
2022-09-28T09:48:55.250Z,28.00
2022-09-28T09:51:41.098Z,27.25
2022-09-28T09:54:25.986Z,25.65
2022-09-28T09:57:03.910Z,27.98
2022-09-28T10:00:12.423Z,27.65
2022-09-28T10:02:54.936Z,27.90
2022-09-28T10:05:37.428Z,28.15
2022-09-28T10:08:13.593Z,26.65
2022-09-28T10:10:55.215Z,29.00
2022-09-28T10:13:25.857Z,29.98
2022-09-28T10:15:58.079Z,23.02
2022-09-28T10:18:32.362Z,25.02
2022-09-28T10:21:20.668Z,23.00
2022-09-28T10:24:02.902Z,21.48
2022-09-28T10:26:39.439Z,21.38
2022-09-28T10:29:16.235Z,21.10
2022-09-28T10:31:49.041Z,25.25
2022-09-28T10:34:27.468Z,25.13
2022-09-28T10:37:01.135Z,26.40
2022-09-28T10:39:53.493Z,23.40
2022-09-28T10:42:30.238Z,21.63
2022-09-28T10:45:00.294Z,25.13
2022-09-28T10:47:38.315Z,26.48
2022-09-28T10:50:24.439Z,23.95
2022-09-28T10:53:20.365Z,24.30
2022-09-28T10:56:20.408Z,22.98
2022-09-28T10:58:52.273Z,24.60
2022-09-28T11:01:40.419Z,26.60
2022-09-28T11:04:19.364Z,24.00
2022-09-28T11:06:47.694Z,26.63
2022-09-28T11:09:30.866Z,23.27
2022-09-28T11:12:06.183Z,24.27
2022-09-28T11:14:42.036Z,28.90
2022-09-28T11:17:33.842Z,29.25
2022-09-28T11:20:27.067Z,30.45
2022-09-28T11:23:26.991Z,30.75
2022-09-28T11:26:05.836Z,29.13
2022-09-28T11:31:08.381Z,31.52
2022-09-28T11:34:01.204Z,29.60
2022-09-28T11:37:20.627Z,28.25
2022-09-28T11:40:11.000Z,29.98
2022-09-28T11:45:41.195Z,31.80
2022-09-28T11:48:22.170Z,25.90
2022-09-28T11:51:24.769Z,28.77
2022-09-28T11:54:00.228Z,28.17
2022-09-28T11:56:35.436Z,27.98
2022-09-28T11:59:27.680Z,30.48
2022-09-28T12:01:59.226Z,27.58
2022-09-28T12:05:02.246Z,29.35
2022-09-28T12:07:34.468Z,28.80
2022-09-28T12:10:04.627Z,24.20
2022-09-28T12:12:52.356Z,24.70
2022-09-28T12:15:26.167Z,28.05
2022-09-28T12:18:01.075Z,25.45
2022-09-28T12:20:30.193Z,27.05
2022-09-28T12:23:08.630Z,28.15
2022-09-28T12:25:59.410Z,27.38
2022-09-28T12:28:27.227Z,25.70
2022-09-28T12:30:55.239Z,27.15
2022-09-28T12:33:23.221Z,27.15
2022-09-28T12:36:12.445Z,27.92
2022-09-28T12:39:17.464Z,30.95
2022-09-28T12:41:58.658Z,26.27
2022-09-28T12:44:35.583Z,28.27
2022-09-28T12:47:33.575Z,26.27
2022-09-28T12:50:38.180Z,31.80
2022-09-28T12:53:20.141Z,31.02
2022-09-28T12:55:48.063Z,28.00
2022-09-28T12:58:36.958Z,28.95
2022-09-28T13:01:17.177Z,32.15
2022-09-28T13:04:04.316Z,28.40
2022-09-28T13:06:55.247Z,29.77
2022-09-28T13:09:24.680Z,26.00
2022-09-28T13:12:00.647Z,31.60
2022-09-28T13:14:50.328Z,29.90
2022-09-28T13:17:46.399Z,28.92
2022-09-28T13:20:26.227Z,29.63
2022-09-28T13:23:15.487Z,29.92
2022-09-28T13:25:57.117Z,32.00
2022-09-28T13:28:27.287Z,29.13
2022-09-28T13:30:56.254Z,29.05
2022-09-28T13:33:36.076Z,31.70
2022-09-28T13:36:27.479Z,30.98
2022-09-28T13:38:56.194Z,28.27
2022-09-28T13:41:29.105Z,31.85
2022-09-28T13:43:57.187Z,30.88
2022-09-28T13:46:39.140Z,33.25
2022-09-28T13:49:26.235Z,34.10
2022-09-28T13:51:58.310Z,36.92
2022-09-28T13:54:41.675Z,31.08
2022-09-28T13:57:16.451Z,33.08
2022-09-28T14:00:11.137Z,34.42
2022-09-28T14:05:44.405Z,32.50
2022-09-28T14:08:29.066Z,35.40
2022-09-28T14:11:24.823Z,34.60
2022-09-28T14:14:08.223Z,33.88
2022-09-28T14:16:37.295Z,32.30
2022-09-28T14:19:24.375Z,33.90
2022-09-28T14:22:09.920Z,30.10
2022-09-28T14:25:06.597Z,31.17
2022-09-28T14:27:40.291Z,33.15
2022-09-28T14:30:14.111Z,32.03
2022-09-28T14:32:45.537Z,32.47
2022-09-28T14:35:24.799Z,35.47
2022-09-28T14:38:12.357Z,32.33
2022-09-28T14:41:16.411Z,48.72
2022-09-28T14:43:44.422Z,35.08
2022-09-28T14:46:15.791Z,36.13
2022-09-28T14:48:57.298Z,38.90
2022-09-28T14:51:26.401Z,37.35
2022-09-28T14:53:55.539Z,35.92
2022-09-28T14:56:23.749Z,35.88
2022-09-28T14:58:53.861Z,35.58
2022-09-28T15:01:26.932Z,37.75
2022-09-28T15:03:56.534Z,33.83
2022-09-28T15:06:29.103Z,41.67
2022-09-28T15:08:58.501Z,42.03
2022-09-28T15:11:27.008Z,39.33
2022-09-28T15:14:06.283Z,33.00
2022-09-28T15:16:34.505Z,36.40
2022-09-28T15:19:06.126Z,35.58
2022-09-28T15:21:36.239Z,34.40
2022-09-28T15:24:32.003Z,37.03
2022-09-28T15:27:10.570Z,35.33
2022-09-28T15:29:38.478Z,33.20
2022-09-28T15:32:06.679Z,33.45
2022-09-28T15:34:51.697Z,38.03
2022-09-28T15:37:32.501Z,36.13
2022-09-28T15:40:01.985Z,38.78
2022-09-28T15:42:36.647Z,39.05
2022-09-28T15:45:30.894Z,32.83
2022-09-28T15:48:24.739Z,33.30
2022-09-28T15:50:59.810Z,31.48
2022-09-28T15:53:28.041Z,29.80
2022-09-28T15:56:00.250Z,27.85
2022-09-28T15:58:29.210Z,25.95
2022-09-28T16:01:25.807Z,20.95
2022-09-28T16:03:54.340Z,19.88
2022-09-28T16:06:23.231Z,21.92
2022-09-28T16:08:52.222Z,16.05
2022-09-28T16:11:26.418Z,18.00
2022-09-28T16:14:06.397Z,18.63
2022-09-28T16:16:36.047Z,18.83
2022-09-28T16:19:05.306Z,18.90
2022-09-28T16:21:40.208Z,17.50
2022-09-28T16:24:33.770Z,19.10
2022-09-28T16:27:03.646Z,104.55
2022-09-28T16:29:42.415Z,22.65
2022-09-28T16:32:25.685Z,22.10
2022-09-28T16:35:17.186Z,20.40
2022-09-28T16:37:45.413Z,18.25
2022-09-28T16:40:13.904Z,17.67
2022-09-28T16:42:48.703Z,18.33
2022-09-28T16:45:21.723Z,21.02
2022-09-28T16:47:54.745Z,17.42
2022-09-28T16:50:22.960Z,18.13
2022-09-28T16:53:17.247Z,32.20
2022-09-28T16:55:46.040Z,18.90
2022-09-28T16:58:13.910Z,19.55
2022-09-28T17:00:43.580Z,21.58
2022-09-28T17:03:18.431Z,17.83
2022-09-28T17:05:46.709Z,16.75
2022-09-28T17:08:18.212Z,17.80
2022-09-28T17:11:13.796Z,29.10
2022-09-28T17:13:43.630Z,18.33
2022-09-28T17:17:02.353Z,17.58
2022-09-28T17:19:24.984Z,16.85
2022-09-28T17:21:53.203Z,20.33
2022-09-28T17:24:21.405Z,27.52
2022-09-28T17:26:50.259Z,21.90
2022-09-28T17:29:18.703Z,16.60
2022-09-28T17:31:46.988Z,17.75
2022-09-28T17:34:16.514Z,21.05
2022-09-28T17:37:04.587Z,15.52
2022-09-28T17:39:33.045Z,18.40
2022-09-28T17:42:02.802Z,17.98
2022-09-28T17:44:30.645Z,25.50
2022-09-28T17:47:01.175Z,22.00
2022-09-28T17:49:29.542Z,20.73
2022-09-28T17:51:57.636Z,21.45
2022-09-28T17:54:25.965Z,19.38
2022-09-28T17:56:54.184Z,21.60
2022-09-28T17:59:26.907Z,19.17
2022-09-28T18:01:56.762Z,18.50
2022-09-28T18:04:50.121Z,20.05
2022-09-28T18:07:15.168Z,19.02
2022-09-28T18:09:43.008Z,20.95
2022-09-28T18:12:12.806Z,22.92
2022-09-28T18:14:41.668Z,22.15
2022-09-28T18:17:09.354Z,18.15
2022-09-28T18:19:38.162Z,17.05
2022-09-28T18:22:07.740Z,24.40
2022-09-28T18:24:38.367Z,22.13
2022-09-28T18:27:06.188Z,19.42
2022-09-28T18:29:36.316Z,20.52
2022-09-28T18:32:04.548Z,18.40
2022-09-28T18:34:36.074Z,19.10
2022-09-28T18:37:04.683Z,19.20
2022-09-28T18:39:53.099Z,18.55
2022-09-28T18:42:21.181Z,18.92
2022-09-28T18:44:49.116Z,21.55
2022-09-28T18:47:17.692Z,19.17
2022-09-28T18:49:46.851Z,19.73
2022-09-28T18:52:18.022Z,20.17
2022-09-28T18:54:47.221Z,19.38
2022-09-28T18:57:18.292Z,19.90
2022-09-28T18:59:46.611Z,21.48
2022-09-28T19:02:17.981Z,20.20
2022-09-28T19:04:45.925Z,21.67
2022-09-28T19:07:13.843Z,20.55
2022-09-28T19:09:44.344Z,19.55
2022-09-28T19:12:12.565Z,18.83
2022-09-28T19:14:41.467Z,19.60
2022-09-28T19:17:10.258Z,20.83
2022-09-28T19:19:38.456Z,21.17
2022-09-28T19:22:06.623Z,20.15
2022-09-28T19:24:34.820Z,23.55
2022-09-28T19:27:02.849Z,20.25
2022-09-28T19:29:30.727Z,22.08
2022-09-28T19:31:58.740Z,19.42
2022-09-28T19:34:30.171Z,23.13
2022-09-28T19:36:58.589Z,19.38
2022-09-28T19:39:26.458Z,22.75
2022-09-28T19:41:57.357Z,21.90
2022-09-28T19:44:28.507Z,21.08
2022-09-28T19:47:07.815Z,22.15
2022-09-28T19:49:37.431Z,21.42
2022-09-28T19:52:15.816Z,22.73
2022-09-28T19:54:57.150Z,23.80
2022-09-28T19:57:27.933Z,29.50
2022-09-28T20:00:02.480Z,22.83
2022-09-28T20:02:38.845Z,22.08
2022-09-28T20:05:10.148Z,21.48
2022-09-28T20:07:43.005Z,22.80
2022-09-28T20:10:12.488Z,19.83
2022-09-28T20:12:42.451Z,18.58
2022-09-28T20:15:10.973Z,18.58
2022-09-28T20:17:39.502Z,21.30
2022-09-28T20:20:14.699Z,18.90
2022-09-28T20:22:46.853Z,20.83
2022-09-28T20:25:16.068Z,20.58
2022-09-28T20:27:44.540Z,24.88
2022-09-28T20:30:16.528Z,18.52
2022-09-28T20:32:50.552Z,31.30
2022-09-28T20:35:32.248Z,30.10
2022-09-28T20:38:09.346Z,26.75
2022-09-28T20:40:41.194Z,21.55
2022-09-28T20:43:11.745Z,29.85
2022-09-28T20:45:43.149Z,40.67
2022-09-28T20:48:11.647Z,35.50
2022-09-28T20:50:47.450Z,37.33
2022-09-28T20:53:19.291Z,40.72
2022-09-28T20:55:49.298Z,40.88
2022-09-28T20:58:17.541Z,42.97
2022-09-28T21:01:26.482Z,48.30
2022-09-28T21:03:55.513Z,51.10
2022-09-28T21:06:25.067Z,43.60
2022-09-28T21:08:53.144Z,46.05
2022-09-28T21:11:23.416Z,51.67
2022-09-28T21:13:55.818Z,46.55
2022-09-28T21:16:23.843Z,54.42
2022-09-28T21:19:00.661Z,60.13
2022-09-28T21:21:29.301Z,49.08
2022-09-28T21:23:57.905Z,55.33
2022-09-28T21:26:28.820Z,50.58
2022-09-28T21:29:09.207Z,52.55
2022-09-28T21:31:42.356Z,48.55
2022-09-28T21:34:22.016Z,46.17
2022-09-28T21:36:53.387Z,53.15
2022-09-28T21:39:55.993Z,44.47
2022-09-28T21:42:24.120Z,45.25
2022-09-28T21:44:56.325Z,47.80
2022-09-28T21:47:28.559Z,57.53
2022-09-28T21:49:56.601Z,54.88
2022-09-28T21:52:24.721Z,54.10
2022-09-28T21:54:52.974Z,51.47
2022-09-28T21:57:22.299Z,55.63
2022-09-28T21:59:50.668Z,54.42
2022-09-28T22:02:21.750Z,55.55
2022-09-28T22:04:56.330Z,66.85
2022-09-28T22:07:24.515Z,67.65
2022-09-28T22:09:53.699Z,58.15
2022-09-28T22:13:02.926Z,59.42
2022-09-28T22:15:32.297Z,59.92
2022-09-28T22:18:00.231Z,50.17
2022-09-28T22:20:29.050Z,48.20
2022-09-28T22:23:04.443Z,58.25
2022-09-28T22:25:33.539Z,57.97
2022-09-28T22:28:01.815Z,49.10
2022-09-28T22:30:30.411Z,57.63
2022-09-28T22:33:02.550Z,73.18
2022-09-28T22:35:41.682Z,60.85
2022-09-28T22:38:41.719Z,57.08
2022-09-28T22:41:12.947Z,45.10
2022-09-28T22:43:41.726Z,45.20
2022-09-28T22:46:17.218Z,42.60
2022-09-28T22:48:52.483Z,42.72
2022-09-28T22:51:23.054Z,48.03
2022-09-28T22:53:58.380Z,43.92
2022-09-28T22:56:27.619Z,39.22
2022-09-28T22:58:57.525Z,40.88
2022-09-28T23:01:27.475Z,44.45
2022-09-28T23:03:56.732Z,47.78
2022-09-28T23:06:31.239Z,44.95
2022-09-28T23:09:00.237Z,44.72
2022-09-28T23:11:29.202Z,41.70
2022-09-28T23:13:59.158Z,35.75
2022-09-28T23:16:27.702Z,37.58
2022-09-28T23:18:56.950Z,33.53
2022-09-28T23:21:26.631Z,35.92
2022-09-28T23:23:59.722Z,29.58
2022-09-28T23:26:32.043Z,35.80
2022-09-28T23:29:00.210Z,33.63
2022-09-28T23:31:31.840Z,32.55
2022-09-28T23:34:05.172Z,32.50
2022-09-28T23:36:33.749Z,30.92
2022-09-28T23:39:02.655Z,30.08
2022-09-28T23:41:30.684Z,26.98
2022-09-28T23:44:01.700Z,23.95
2022-09-28T23:46:30.398Z,28.20
2022-09-28T23:48:59.592Z,25.40
2022-09-28T23:51:28.323Z,25.33
2022-09-28T23:53:57.675Z,31.17
2022-09-28T23:56:25.439Z,25.25
2022-09-28T23:58:54.509Z,28.92
